Flight Track Log - Related Links

Times and Time Zones

All times are in EDT time to prevent confusion due to time zone crossing. See the ASQ5941 flight status page for this flight to view local times or setup timezone preferences in your user account.

Time Position Orientation Groundspeed Altitude Reporting Facility
EDT Latitude Longitude Course Direction KTS MPH feet Rate Location/Type
Tue 03:52:53 PM 42.0167 -87.9500 81° East 189 217 2,700  Level Chicago TRACON
Tue 03:53:53 PM 42.0667 -87.9000 37° Northeast 253 291 3,900 1,211 Climbing Chicago TRACON
Tue 03:54:47 PM 42.1167 -87.8500 37° Northeast 275 316 5,000 1,500 Climbing Chicago TRACON
Tue 03:55:00 PM 42.0412 -87.4634 83° East  Level FlightAware Approximate
Tue 03:56:00 PM 42.0583 -87.3133 78° East  Level FlightAware Approximate
Tue 03:56:17 PM 42.2008 -87.7536 40° Northeast 281 323 7,500  Level Chicago Center
Tue 03:57:00 PM 42.0811 -87.1644 78° East  Level FlightAware Approximate
Tue 03:57:19 PM 42.2253 -87.6217 76° East 313 360 9,700  Level Chicago Center
Tue 03:58:00 PM 42.0789 -87.0173 81° East  Level Estimated
Tue 03:58:21 PM 42.2319 -87.5008 86° East 321 369 11,600  Level Chicago Center
Tue 04:00:25 PM 42.2422 -87.2517 87° East 337 388 14,900 1,589 Climbing Chicago Center
Tue 04:01:26 PM 42.2514 -87.1231 84° East 344 396 16,500 1,463 Climbing Chicago Center
Tue 04:02:28 PM 42.2600 -86.9936 85° East 347 399 17,900 1,210 Climbing Chicago Center
Tue 04:03:30 PM 42.2836 -86.8361 78° East 361 415 19,000 823 Climbing Chicago Center
Tue 04:04:32 PM 42.3128 -86.6942 74° East 390 449 19,600 774 Climbing Chicago Center
Tue 04:05:34 PM 42.3436 -86.5442 74° East 407 468 20,600 968 Climbing Chicago Center
Tue 04:06:36 PM 42.3742 -86.3967 74° East 409 471 21,600 1,016 Climbing Chicago Center
Tue 04:07:38 PM 42.4028 -86.2489 75° East 409 471 22,700 1,113 Climbing Chicago Center
Tue 04:08:40 PM 42.4336 -86.1031 74° East 407 468 23,900 1,113 Climbing Chicago Center
Tue 04:09:42 PM 42.4708 -85.9306 74° East 402 463 25,000 532 Climbing Chicago Center
Tue 04:10:44 PM 42.4986 -85.7789 76° East 414 476 25,000 194 Level Chicago Center
Tue 04:11:46 PM 42.5253 -85.6206 77° East 431 496 25,400 960 Climbing Chicago Center
Tue 04:12:49 PM 42.5550 -85.4725 75° East 415 478 27,000 1,645 Climbing Chicago Center
Tue 04:13:50 PM 42.5747 -85.3294 79° East 393 452 28,800 976 Climbing Chicago Center
Tue 04:14:52 PM 42.5747 -85.1467 90° East 406 467 29,000 97 Climbing Chicago Center
Tue 04:15:54 PM 42.5897 -84.9794 83° East 447 514 29,000  Level Chicago Center
Tue 04:16:56 PM 42.6028 -84.8078 84° East 457 526 29,000 629 Level Chicago Center
Tue 04:17:58 PM 42.6161 -84.6381 84° East 455 524 30,300 1,694 Climbing Chicago Center
Tue 04:19:00 PM 42.6200 -84.4819 88° East 419 482 32,500 2,073 Climbing Chicago Center
Tue 04:19:48 PM 42.6111 -84.3525 95° East 403 464 34,100 1,389 Climbing Cleveland Center
Tue 04:20:48 PM 42.6008 -84.2167 96° East 377 434 35,000 450 Climbing Cleveland Center
Tue 04:21:48 PM 42.5864 -84.0747 98° East 369 425 35,000  Level Cleveland Center
Tue 04:22:48 PM 42.5722 -83.9189 97° East 387 445 35,000  Level Cleveland Center
Tue 04:23:48 PM 42.5603 -83.7544 96° East 416 479 35,000  Level Cleveland Center
Tue 04:24:48 PM 42.5442 -83.5819 97° East 438 504 35,000  Level Cleveland Center
Tue 04:25:48 PM 42.5297 -83.4064 96° East 456 525 35,000  Level Cleveland Center
Tue 04:26:48 PM 42.5147 -83.2481 97° East 467 537 35,000  Level Cleveland Center
Tue 04:27:48 PM 42.4958 -83.0697 98° East 467 537 35,000  Level Cleveland Center
Tue 04:28:48 PM 42.4786 -82.8972 98° East 467 537 35,000  Level Cleveland Center
Tue 04:29:48 PM 42.4589 -82.7250 99° East 467 537 35,000  Level Cleveland Center
Tue 04:30:48 PM 42.4433 -82.5500 97° East 467 537 35,000  Level Cleveland Center
Tue 04:31:48 PM 42.4233 -82.3750 99° East 472 543 35,000  Level Cleveland Center
Tue 04:32:48 PM 42.4072 -82.1972 97° East 467 537 35,000  Level Cleveland Center
Tue 04:33:48 PM 42.3867 -82.0083 98° East 462 532 35,000  Level Cleveland Center
Tue 04:34:48 PM 42.3678 -81.8367 98° East 467 537 35,000  Level Cleveland Center
Tue 04:35:48 PM 42.3489 -81.6675 99° East 461 531 35,000  Level Cleveland Center
Tue 04:36:48 PM 42.3336 -81.5017 97° East 456 525 35,000  Level Cleveland Center
Tue 04:37:48 PM 42.3119 -81.3300 100° East 451 519 35,000  Level Cleveland Center
Tue 04:38:48 PM 42.2942 -81.1642 98° East 451 519 35,000  Level Cleveland Center
Tue 04:39:48 PM 42.2781 -81.0153 98° East 451 519 35,000 -100 Level Cleveland Center
Tue 04:40:48 PM 42.2556 -80.8442 100° East 451 519 34,800 -650 Descending Cleveland Center
Tue 04:41:48 PM 42.2350 -80.6700 99° East 460 529 33,700 -900 Descending Cleveland Center
Tue 04:42:48 PM 42.2164 -80.4992 98° East 465 535 33,000 -350 Descending Cleveland Center
Tue 04:43:48 PM 42.1931 -80.3281 100° East 465 535 33,000  Level Cleveland Center
Tue 04:44:48 PM 42.1717 -80.1406 99° East 465 535 33,000  Level Cleveland Center
Tue 04:45:48 PM 42.1544 -79.9808 98° East 465 535 33,000  Level Cleveland Center
Tue 04:46:48 PM 42.1303 -79.8078 101° East 465 535 33,000  Level Cleveland Center
Tue 04:47:48 PM 42.1103 -79.6344 99° East 465 535 33,000  Level Cleveland Center
Tue 04:48:48 PM 42.0858 -79.4669 101° East 465 535 33,000  Level Cleveland Center
Tue 04:49:48 PM 42.0656 -79.3022 99° East 460 529 33,000  Level Cleveland Center
Tue 04:50:48 PM 42.0447 -79.1433 100° East 448 516 33,000  Level Cleveland Center
Tue 04:51:48 PM 42.0217 -78.9817 101° East 442 509 33,000  Level Cleveland Center
Tue 04:52:48 PM 41.9964 -78.8175 102° East 442 509 33,000  Level Cleveland Center
Tue 04:53:48 PM 41.9689 -78.6506 102° East 447 514 33,000 -350 Level Cleveland Center
Tue 04:54:48 PM 41.9450 -78.4783 101° East 457 526 32,300 -950 Descending Cleveland Center
Tue 04:55:48 PM 41.9186 -78.3006 101° East 475 547 31,100 -1,400 Descending Cleveland Center
Tue 04:56:48 PM 41.8900 -78.1314 103° East 470 541 29,500 -2,100 Descending Cleveland Center
Tue 04:57:28 PM 41.8675 -78.0100 104° East 463 533 27,600 -3,149 Descending New York Center
Tue 04:58:29 PM 41.8453 -77.8572 101° East 468 539 24,200 -3,277 Descending New York Center
Tue 04:59:27 PM 41.8194 -77.6956 102° East 461 531 21,100 -1,627 Descending New York Center
Tue 05:00:27 PM 41.7911 -77.5369 103° East 447 514 21,000 -545 Descending New York Center
Tue 05:01:28 PM 41.7669 -77.3731 101° East 447 514 20,000 -1,091 Descending New York Center
Tue 05:02:28 PM 41.7400 -77.2175 103° East 442 509 18,800 -1,140 Descending New York Center
Tue 05:03:29 PM 41.7114 -77.0536 103° East 425 489 17,700 -1,537 Descending New York Center
Tue 05:04:29 PM 41.6875 -76.9153 103° East 402 463 15,700 -2,542 Descending New York Center
Tue 05:05:27 PM 41.6633 -76.7742 103° East 389 448 12,700 -2,370 Descending New York Center
Tue 05:06:28 PM 41.6406 -76.6444 103° East 375 432 11,000 -1,131 Descending New York Center
Tue 05:07:29 PM 41.6194 -76.5231 103° East 354 407 10,400 -793 Descending New York Center
Tue 05:08:29 PM 41.6017 -76.4189 103° East 308 354 9,400 -700 Descending New York Center
Tue 05:09:29 PM 41.5872 -76.3289 102° East 279 321 9,000 -661 Descending New York Center
Tue 05:10:27 PM 41.5689 -76.2303 104° East 274 315 8,100 -1,475 Descending New York Center
Tue 05:11:27 PM 41.5569 -76.1242 99° East 261 300 6,100 -1,820 Descending New York Center
Tue 05:12:29 PM 41.5508 -76.0267 95° East 261 300 4,400 -1,050 Descending New York Center
Tue 05:13:27 PM 41.5467 -75.9319 93° East 261 300 4,000 -200 Descending New York Center
Tue 05:14:29 PM 41.5397 -75.8511 97° East 256 295 4,000  Level New York Center
Tue 05:15:26 PM 41.5350 -75.7675 94° East 240 276 4,000  Level New York Center
Tue 05:16:28 PM 41.5306 -75.6758 94° East 227 261 4,000  Level New York Center
Tue 05:17:28 PM 41.5142 -75.6164 110° East 209 241 4,000 -248 Level New York Center
Tue 05:18:29 PM 41.4581 -75.6178 181° South 151 174 3,500 -605 Descending New York Center
Tue 05:19:27 PM 41.4211 -75.6511 214° Southwest 134 154 2,800 -724 Descending New York Center

Login

Don't have an account? Register now (free) for customized features, flight alerts, and more!